sensor_id;sensor_type;location;lat;lon;timestamp;pressure;altitude;pressure_sealevel;temperature;humidity
46955;BME280;32708;51.212;6.788;2023-04-19T00:01:06;101988.22;;;15.60;83.77
46955;BME280;32708;51.212;6.788;2023-04-19T00:03:32;101990.75;;;15.22;84.29
46955;BME280;32708;51.212;6.788;2023-04-19T00:05:59;101985.66;;;15.63;82.98
46955;BME280;32708;51.212;6.788;2023-04-19T00:08:25;101989.72;;;15.66;83.26
46955;BME280;32708;51.212;6.788;2023-04-19T00:10:51;101989.72;;;15.00;86.26
46955;BME280;32708;51.212;6.788;2023-04-19T00:13:18;101973.03;;;15.97;81.90
46955;BME280;32708;51.212;6.788;2023-04-19T00:15:47;101979.16;;;16.20;81.54
46955;BME280;32708;51.212;6.788;2023-04-19T00:18:14;101981.72;;;15.47;84.78
46955;BME280;32708;51.212;6.788;2023-04-19T00:20:40;101979.84;;;15.74;83.49
46955;BME280;32708;51.212;6.788;2023-04-19T00:23:06;101957.00;;;15.82;83.38
46955;BME280;32708;51.212;6.788;2023-04-19T00:25:32;101970.09;;;16.11;81.39
46955;BME280;32708;51.212;6.788;2023-04-19T00:27:59;101959.75;;;15.82;83.04
46955;BME280;32708;51.212;6.788;2023-04-19T00:30:26;101960.72;;;15.68;83.05
46955;BME280;32708;51.212;6.788;2023-04-19T00:32:52;101963.06;;;15.27;85.21
46955;BME280;32708;51.212;6.788;2023-04-19T00:35:18;101969.81;;;15.86;82.86
46955;BME280;32708;51.212;6.788;2023-04-19T00:37:45;101975.63;;;15.67;84.86
46955;BME280;32708;51.212;6.788;2023-04-19T00:40:13;101983.84;;;15.59;84.16
46955;BME280;32708;51.212;6.788;2023-04-19T00:42:39;101973.19;;;15.75;84.40
46955;BME280;32708;51.212;6.788;2023-04-19T00:45:06;101976.91;;;14.87;88.47
46955;BME280;32708;51.212;6.788;2023-04-19T00:47:34;101970.78;;;15.64;85.04
46955;BME280;32708;51.212;6.788;2023-04-19T00:50:03;101959.75;;;15.90;85.32
46955;BME280;32708;51.212;6.788;2023-04-19T00:52:31;101969.31;;;15.76;84.62
46955;BME280;32708;51.212;6.788;2023-04-19T00:54:58;101963.00;;;15.84;84.45
46955;BME280;32708;51.212;6.788;2023-04-19T00:57:25;101971.13;;;15.06;88.37
46955;BME280;32708;51.212;6.788;2023-04-19T00:59:51;101969.78;;;15.95;85.13
46955;BME280;32708;51.212;6.788;2023-04-19T01:02:17;101950.22;;;15.79;84.81
46955;BME280;32708;51.212;6.788;2023-04-19T01:04:44;101967.53;;;15.71;85.46
46955;BME280;32708;51.212;6.788;2023-04-19T01:07:12;101968.16;;;15.51;86.16
46955;BME280;32708;51.212;6.788;2023-04-19T01:09:46;101970.53;;;14.78;91.39
46955;BME280;32708;51.212;6.788;2023-04-19T01:12:12;101953.72;;;15.54;88.15
46955;BME280;32708;51.212;6.788;2023-04-19T01:14:39;101956.53;;;15.80;87.17
46955;BME280;32708;51.212;6.788;2023-04-19T01:17:06;101962.66;;;15.59;87.34
46955;BME280;32708;51.212;6.788;2023-04-19T01:19:33;101947.59;;;15.91;86.36
46955;BME280;32708;51.212;6.788;2023-04-19T01:22:00;101948.09;;;15.67;87.81
46955;BME280;32708;51.212;6.788;2023-04-19T01:24:28;101951.81;;;15.89;87.33
46955;BME280;32708;51.212;6.788;2023-04-19T01:26:54;101949.75;;;14.94;91.81
46955;BME280;32708;51.212;6.788;2023-04-19T01:29:20;101950.00;;;15.93;86.87
46955;BME280;32708;51.212;6.788;2023-04-19T01:31:48;101947.88;;;15.29;91.93
46955;BME280;32708;51.212;6.788;2023-04-19T01:34:21;101952.31;;;15.74;89.56
46955;BME280;32708;51.212;6.788;2023-04-19T01:36:51;101949.34;;;15.44;91.29
46955;BME280;32708;51.212;6.788;2023-04-19T01:39:17;101950.66;;;15.55;90.99
46955;BME280;32708;51.212;6.788;2023-04-19T01:41:43;101942.56;;;16.02;89.10
46955;BME280;32708;51.212;6.788;2023-04-19T01:44:10;101942.50;;;16.37;87.07
46955;BME280;32708;51.212;6.788;2023-04-19T01:46:36;101932.69;;;16.01;89.39
46955;BME280;32708;51.212;6.788;2023-04-19T01:49:03;101925.41;;;15.88;89.36
46955;BME280;32708;51.212;6.788;2023-04-19T01:51:30;101935.78;;;15.74;90.42
46955;BME280;32708;51.212;6.788;2023-04-19T01:53:56;101948.88;;;15.59;92.46
46955;BME280;32708;51.212;6.788;2023-04-19T01:56:23;101939.78;;;16.11;90.20
46955;BME280;32708;51.212;6.788;2023-04-19T01:58:49;101935.44;;;15.92;89.62
46955;BME280;32708;51.212;6.788;2023-04-19T02:01:15;101936.72;;;16.59;85.87
46955;BME280;32708;51.212;6.788;2023-04-19T02:03:41;101938.75;;;16.33;88.06
46955;BME280;32708;51.212;6.788;2023-04-19T02:06:30;101947.56;;;15.57;91.92
46955;BME280;32708;51.212;6.788;2023-04-19T02:08:57;101936.91;;;15.90;92.46
46955;BME280;32708;51.212;6.788;2023-04-19T02:11:23;101938.16;;;16.18;91.45
46955;BME280;32708;51.212;6.788;2023-04-19T02:13:49;101928.31;;;15.83;90.87
46955;BME280;32708;51.212;6.788;2023-04-19T02:16:15;101933.31;;;15.98;92.22
46955;BME280;32708;51.212;6.788;2023-04-19T02:18:41;101920.94;;;16.21;90.96
46955;BME280;32708;51.212;6.788;2023-04-19T02:21:09;101919.47;;;16.33;91.07
46955;BME280;32708;51.212;6.788;2023-04-19T02:23:35;101932.16;;;16.16;91.89
46955;BME280;32708;51.212;6.788;2023-04-19T02:26:02;101938.03;;;15.37;97.12
46955;BME280;32708;51.212;6.788;2023-04-19T02:28:29;101942.06;;;15.48;98.68
46955;BME280;32708;51.212;6.788;2023-04-19T02:30:57;101930.91;;;15.88;96.11
46955;BME280;32708;51.212;6.788;2023-04-19T02:33:25;101933.38;;;15.72;96.47
46955;BME280;32708;51.212;6.788;2023-04-19T02:35:52;101938.03;;;15.89;96.67
46955;BME280;32708;51.212;6.788;2023-04-19T02:38:18;101930.84;;;16.14;95.25
46955;BME280;32708;51.212;6.788;2023-04-19T02:40:44;101931.22;;;15.60;96.49
46955;BME280;32708;51.212;6.788;2023-04-19T02:43:10;101940.78;;;15.46;99.49
46955;BME280;32708;51.212;6.788;2023-04-19T02:45:36;101926.31;;;16.18;94.02
46955;BME280;32708;51.212;6.788;2023-04-19T02:48:03;101926.75;;;16.37;92.38
46955;BME280;32708;51.212;6.788;2023-04-19T02:50:31;101932.69;;;15.84;94.75
46955;BME280;32708;51.212;6.788;2023-04-19T02:52:57;101943.25;;;15.64;96.55
46955;BME280;32708;51.212;6.788;2023-04-19T02:55:25;101953.69;;;15.28;99.16
46955;BME280;32708;51.212;6.788;2023-04-19T02:58:00;101943.25;;;15.64;96.51
46955;BME280;32708;51.212;6.788;2023-04-19T03:00:26;101942.53;;;15.41;97.61
46955;BME280;32708;51.212;6.788;2023-04-19T03:03:06;101931.88;;;15.57;96.66
46955;BME280;32708;51.212;6.788;2023-04-19T03:05:33;101931.72;;;15.36;96.93
46955;BME280;32708;51.212;6.788;2023-04-19T03:07:59;101936.03;;;15.11;98.45
46955;BME280;32708;51.212;6.788;2023-04-19T03:10:26;101940.44;;;15.38;96.80
46955;BME280;32708;51.212;6.788;2023-04-19T03:12:52;101922.91;;;16.12;92.55
46955;BME280;32708;51.212;6.788;2023-04-19T03:15:18;101920.22;;;15.60;93.86
46955;BME280;32708;51.212;6.788;2023-04-19T03:17:45;101927.53;;;15.74;93.09
46955;BME280;32708;51.212;6.788;2023-04-19T03:20:11;101913.56;;;15.35;94.15
46955;BME280;32708;51.212;6.788;2023-04-19T03:22:38;101918.28;;;15.69;94.51
46955;BME280;32708;51.212;6.788;2023-04-19T03:25:05;101906.59;;;15.90;91.68
46955;BME280;32708;51.212;6.788;2023-04-19T03:27:34;101914.13;;;16.74;89.02
46955;BME280;32708;51.212;6.788;2023-04-19T03:30:06;101903.91;;;16.37;89.53
46955;BME280;32708;51.212;6.788;2023-04-19T03:32:32;101906.00;;;16.40;89.43
46955;BME280;32708;51.212;6.788;2023-04-19T03:34:59;101907.44;;;16.46;88.58
46955;BME280;32708;51.212;6.788;2023-04-19T03:37:25;101907.03;;;16.56;86.01
46955;BME280;32708;51.212;6.788;2023-04-19T03:39:51;101896.44;;;17.05;84.94
46955;BME280;32708;51.212;6.788;2023-04-19T03:42:24;101893.59;;;16.55;86.08
46955;BME280;32708;51.212;6.788;2023-04-19T03:45:04;101898.31;;;16.54;85.60
46955;BME280;32708;51.212;6.788;2023-04-19T03:47:33;101894.66;;;16.80;85.93
46955;BME280;32708;51.212;6.788;2023-04-19T03:49:59;101895.84;;;16.23;88.33
46955;BME280;32708;51.212;6.788;2023-04-19T03:52:27;101886.53;;;16.45;87.77
46955;BME280;32708;51.212;6.788;2023-04-19T03:54:53;101900.34;;;16.36;87.29
46955;BME280;32708;51.212;6.788;2023-04-19T03:57:33;101893.88;;;16.62;85.69
46955;BME280;32708;51.212;6.788;2023-04-19T04:00:04;101889.28;;;16.45;84.99
46955;BME280;32708;51.212;6.788;2023-04-19T04:02:39;101875.88;;;16.73;83.84
46955;BME280;32708;51.212;6.788;2023-04-19T04:05:06;101892.25;;;16.31;84.33
46955;BME280;32708;51.212;6.788;2023-04-19T04:07:33;101891.47;;;16.60;84.24
46955;BME280;32708;51.212;6.788;2023-04-19T04:10:01;101880.75;;;16.20;85.34
46955;BME280;32708;51.212;6.788;2023-04-19T04:12:28;101879.72;;;15.87;87.97
46955;BME280;32708;51.212;6.788;2023-04-19T04:14:55;101888.97;;;16.38;85.61
46955;BME280;32708;51.212;6.788;2023-04-19T04:17:22;101889.59;;;15.88;87.64
46955;BME280;32708;51.212;6.788;2023-04-19T04:19:49;101886.22;;;15.39;90.89
46955;BME280;32708;51.212;6.788;2023-04-19T04:22:17;101882.97;;;15.89;87.70
46955;BME280;32708;51.212;6.788;2023-04-19T04:24:43;101882.16;;;15.71;87.74
46955;BME280;32708;51.212;6.788;2023-04-19T04:27:19;101888.00;;;15.44;86.91
46955;BME280;32708;51.212;6.788;2023-04-19T04:29:47;101877.97;;;15.22;89.24
46955;BME280;32708;51.212;6.788;2023-04-19T04:32:14;101891.69;;;15.04;90.90
46955;BME280;32708;51.212;6.788;2023-04-19T04:34:43;101887.97;;;15.26;89.42
46955;BME280;32708;51.212;6.788;2023-04-19T04:37:21;101885.50;;;14.90;88.33
46955;BME280;32708;51.212;6.788;2023-04-19T04:39:48;101876.00;;;15.39;86.56
46955;BME280;32708;51.212;6.788;2023-04-19T04:42:14;101889.63;;;14.62;89.94
46955;BME280;32708;51.212;6.788;2023-04-19T04:44:40;101883.78;;;15.29;86.74
46955;BME280;32708;51.212;6.788;2023-04-19T04:47:08;101892.34;;;14.22;90.40
46955;BME280;32708;51.212;6.788;2023-04-19T04:49:42;101888.38;;;14.85;86.91
46955;BME280;32708;51.212;6.788;2023-04-19T04:52:08;101885.84;;;14.97;85.88
46955;BME280;32708;51.212;6.788;2023-04-19T04:54:41;101887.59;;;14.84;85.69
46955;BME280;32708;51.212;6.788;2023-04-19T04:57:18;101889.28;;;14.54;86.66
46955;BME280;32708;51.212;6.788;2023-04-19T04:59:44;101888.59;;;14.49;87.34
46955;BME280;32708;51.212;6.788;2023-04-19T05:02:14;101885.81;;;14.80;85.44
46955;BME280;32708;51.212;6.788;2023-04-19T05:04:40;101885.97;;;14.83;84.59
46955;BME280;32708;51.212;6.788;2023-04-19T05:07:06;101888.50;;;14.63;85.65
46955;BME280;32708;51.212;6.788;2023-04-19T05:09:32;101886.34;;;15.08;83.04
46955;BME280;32708;51.212;6.788;2023-04-19T05:11:59;101862.22;;;15.83;79.40
46955;BME280;32708;51.212;6.788;2023-04-19T05:14:26;101875.03;;;15.09;81.33
46955;BME280;32708;51.212;6.788;2023-04-19T05:16:52;101872.22;;;14.92;83.30
46955;BME280;32708;51.212;6.788;2023-04-19T05:19:18;101882.75;;;14.90;82.75
46955;BME280;32708;51.212;6.788;2023-04-19T05:21:50;101882.47;;;15.09;82.23
46955;BME280;32708;51.212;6.788;2023-04-19T05:24:16;101885.69;;;15.11;81.48
46955;BME280;32708;51.212;6.788;2023-04-19T05:26:43;101868.91;;;15.30;80.39
46955;BME280;32708;51.212;6.788;2023-04-19T05:29:10;101888.25;;;14.90;80.52
46955;BME280;32708;51.212;6.788;2023-04-19T05:31:48;101884.19;;;14.79;80.24
46955;BME280;32708;51.212;6.788;2023-04-19T05:34:22;101877.72;;;14.83;78.94
46955;BME280;32708;51.212;6.788;2023-04-19T05:36:48;101878.84;;;14.82;78.39
46955;BME280;32708;51.212;6.788;2023-04-19T05:39:14;101895.72;;;15.07;77.42
46955;BME280;32708;51.212;6.788;2023-04-19T05:41:42;101874.41;;;14.55;78.38
46955;BME280;32708;51.212;6.788;2023-04-19T05:44:08;101890.19;;;14.90;77.42
46955;BME280;32708;51.212;6.788;2023-04-19T05:46:35;101887.97;;;14.52;77.65
46955;BME280;32708;51.212;6.788;2023-04-19T05:49:02;101878.97;;;14.29;78.58
46955;BME280;32708;51.212;6.788;2023-04-19T05:51:47;101873.16;;;14.70;75.85
46955;BME280;32708;51.212;6.788;2023-04-19T05:54:23;101866.53;;;14.71;74.81
46955;BME280;32708;51.212;6.788;2023-04-19T05:56:50;101879.72;;;15.09;73.30
46955;BME280;32708;51.212;6.788;2023-04-19T05:59:16;101880.06;;;14.50;74.14
46955;BME280;32708;51.212;6.788;2023-04-19T06:01:42;101888.22;;;14.81;74.07
46955;BME280;32708;51.212;6.788;2023-04-19T06:04:09;101866.09;;;14.95;71.53
46955;BME280;32708;51.212;6.788;2023-04-19T06:06:35;101880.78;;;14.42;73.70
46955;BME280;32708;51.212;6.788;2023-04-19T06:09:02;101863.53;;;15.25;71.03
46955;BME280;32708;51.212;6.788;2023-04-19T06:11:30;101861.16;;;14.57;72.18
46955;BME280;32708;51.212;6.788;2023-04-19T06:13:57;101858.69;;;14.47;71.30
46955;BME280;32708;51.212;6.788;2023-04-19T06:16:23;101864.66;;;15.84;68.10
46955;BME280;32708;51.212;6.788;2023-04-19T06:18:49;101853.16;;;16.67;64.09
46955;BME280;32708;51.212;6.788;2023-04-19T06:21:15;101868.66;;;16.42;62.53
46955;BME280;32708;51.212;6.788;2023-04-19T06:23:42;101846.44;;;17.81;60.04
46955;BME280;32708;51.212;6.788;2023-04-19T06:26:11;101850.06;;;17.94;57.45
46955;BME280;32708;51.212;6.788;2023-04-19T06:28:37;101855.84;;;18.50;55.86
46955;BME280;32708;51.212;6.788;2023-04-19T06:31:04;101864.28;;;17.51;57.86
46955;BME280;32708;51.212;6.788;2023-04-19T06:33:30;101891.31;;;16.57;59.36
46955;BME280;32708;51.212;6.788;2023-04-19T06:35:56;101859.84;;;18.04;56.69
46955;BME280;32708;51.212;6.788;2023-04-19T06:38:22;101849.41;;;17.22;57.44
46955;BME280;32708;51.212;6.788;2023-04-19T06:40:49;101857.47;;;16.47;59.36
46955;BME280;32708;51.212;6.788;2023-04-19T06:43:15;101853.59;;;17.61;57.14
46955;BME280;32708;51.212;6.788;2023-04-19T06:45:42;101843.22;;;17.92;55.00
46955;BME280;32708;51.212;6.788;2023-04-19T06:48:08;101855.00;;;16.55;57.98
46955;BME280;32708;51.212;6.788;2023-04-19T06:50:35;101854.97;;;17.34;56.59
46955;BME280;32708;51.212;6.788;2023-04-19T06:53:01;101849.56;;;17.92;54.63
46955;BME280;32708;51.212;6.788;2023-04-19T06:55:27;101848.34;;;18.14;52.34
46955;BME280;32708;51.212;6.788;2023-04-19T06:57:53;101852.75;;;18.39;52.43
46955;BME280;32708;51.212;6.788;2023-04-19T07:00:19;101846.28;;;18.23;52.84
46955;BME280;32708;51.212;6.788;2023-04-19T07:02:45;101848.69;;;18.98;50.48
46955;BME280;32708;51.212;6.788;2023-04-19T07:05:11;101859.91;;;17.83;51.73
46955;BME280;32708;51.212;6.788;2023-04-19T07:07:38;101855.47;;;17.70;53.21
46955;BME280;32708;51.212;6.788;2023-04-19T07:10:07;101856.53;;;16.35;54.13
46955;BME280;32708;51.212;6.788;2023-04-19T07:12:34;101863.69;;;15.72;56.76
46955;BME280;32708;51.212;6.788;2023-04-19T07:15:00;101842.94;;;17.18;54.01
46955;BME280;32708;51.212;6.788;2023-04-19T07:17:26;101845.84;;;17.55;52.92
46955;BME280;32708;51.212;6.788;2023-04-19T07:19:52;101848.09;;;19.17;50.05
46955;BME280;32708;51.212;6.788;2023-04-19T07:22:22;101851.53;;;17.92;50.20
46955;BME280;32708;51.212;6.788;2023-04-19T07:24:48;101844.69;;;18.71;49.43
46955;BME280;32708;51.212;6.788;2023-04-19T07:27:17;101842.59;;;18.92;47.90
46955;BME280;32708;51.212;6.788;2023-04-19T07:29:43;101842.59;;;18.56;48.37
46955;BME280;32708;51.212;6.788;2023-04-19T07:32:11;101827.13;;;20.03;46.26
46955;BME280;32708;51.212;6.788;2023-04-19T07:34:39;101826.03;;;21.26;43.52
46955;BME280;32708;51.212;6.788;2023-04-19T07:37:06;101830.19;;;20.30;43.91
46955;BME280;32708;51.212;6.788;2023-04-19T07:39:33;101830.59;;;18.64;46.82
46955;BME280;32708;51.212;6.788;2023-04-19T07:41:59;101836.84;;;19.25;46.56
46955;BME280;32708;51.212;6.788;2023-04-19T07:44:28;101839.94;;;18.35;47.66
46955;BME280;32708;51.212;6.788;2023-04-19T07:46:54;101847.53;;;18.13;47.90
46955;BME280;32708;51.212;6.788;2023-04-19T07:49:20;101836.50;;;17.47;49.17
46955;BME280;32708;51.212;6.788;2023-04-19T07:51:47;101841.72;;;17.07;50.14
46955;BME280;32708;51.212;6.788;2023-04-19T07:54:13;101830.91;;;17.89;48.55
46955;BME280;32708;51.212;6.788;2023-04-19T07:56:41;101829.66;;;16.91;49.94
46955;BME280;32708;51.212;6.788;2023-04-19T07:59:07;101837.88;;;17.20;49.66
46955;BME280;32708;51.212;6.788;2023-04-19T08:01:34;101834.38;;;17.98;47.49
46955;BME280;32708;51.212;6.788;2023-04-19T08:04:00;101832.84;;;17.76;48.24
46955;BME280;32708;51.212;6.788;2023-04-19T08:06:26;101830.72;;;18.92;45.28
46955;BME280;32708;51.212;6.788;2023-04-19T08:08:54;101832.75;;;19.91;43.19
46955;BME280;32708;51.212;6.788;2023-04-19T08:11:20;101835.28;;;19.12;43.96
46955;BME280;32708;51.212;6.788;2023-04-19T08:13:47;101834.91;;;18.74;43.74
46955;BME280;32708;51.212;6.788;2023-04-19T08:16:13;101832.19;;;19.70;42.87
46955;BME280;32708;51.212;6.788;2023-04-19T08:18:40;101812.47;;;21.63;38.96
46955;BME280;32708;51.212;6.788;2023-04-19T08:21:06;101827.53;;;21.04;38.57
46955;BME280;32708;51.212;6.788;2023-04-19T08:23:33;101826.78;;;18.93;41.59
46955;BME280;32708;51.212;6.788;2023-04-19T08:25:59;101810.72;;;19.11;41.17
46955;BME280;32708;51.212;6.788;2023-04-19T08:28:25;101823.22;;;21.06;38.35
46955;BME280;32708;51.212;6.788;2023-04-19T08:30:51;101824.19;;;18.72;40.18
46955;BME280;32708;51.212;6.788;2023-04-19T08:33:18;101829.00;;;18.26;41.33
46955;BME280;32708;51.212;6.788;2023-04-19T08:35:45;101828.66;;;18.03;41.21
46955;BME280;32708;51.212;6.788;2023-04-19T08:38:12;101818.81;;;20.03;39.06
46955;BME280;32708;51.212;6.788;2023-04-19T08:40:48;101846.03;;;20.29;37.10
46955;BME280;32708;51.212;6.788;2023-04-19T08:43:17;101842.16;;;18.41;39.34
46955;BME280;32708;51.212;6.788;2023-04-19T08:45:49;101819.56;;;18.52;39.89
46955;BME280;32708;51.212;6.788;2023-04-19T08:48:16;101828.03;;;19.08;38.43
46955;BME280;32708;51.212;6.788;2023-04-19T08:50:43;101827.38;;;18.50;39.52
46955;BME280;32708;51.212;6.788;2023-04-19T08:53:14;101818.41;;;18.53;38.95
46955;BME280;32708;51.212;6.788;2023-04-19T08:55:42;101835.00;;;18.77;38.28
46955;BME280;32708;51.212;6.788;2023-04-19T08:58:08;101812.97;;;19.77;36.61
46955;BME280;32708;51.212;6.788;2023-04-19T09:00:38;101825.31;;;18.95;37.22
46955;BME280;32708;51.212;6.788;2023-04-19T09:03:07;101798.00;;;20.10;35.41
46955;BME280;32708;51.212;6.788;2023-04-19T09:05:37;101817.25;;;19.59;35.77
46955;BME280;32708;51.212;6.788;2023-04-19T09:08:25;101824.63;;;18.50;37.43
46955;BME280;32708;51.212;6.788;2023-04-19T09:10:54;101819.06;;;18.98;36.45
46955;BME280;32708;51.212;6.788;2023-04-19T09:13:21;101800.56;;;20.34;33.97
46955;BME280;32708;51.212;6.788;2023-04-19T09:15:48;101807.84;;;19.63;35.36
46955;BME280;32708;51.212;6.788;2023-04-19T09:18:14;101812.81;;;19.86;35.23
46955;BME280;32708;51.212;6.788;2023-04-19T09:20:43;101814.09;;;19.32;35.77
46955;BME280;32708;51.212;6.788;2023-04-19T09:23:13;101804.34;;;18.70;36.57
46955;BME280;32708;51.212;6.788;2023-04-19T09:25:54;101798.00;;;18.57;36.50
46955;BME280;32708;51.212;6.788;2023-04-19T09:28:23;101786.28;;;19.57;36.17
46955;BME280;32708;51.212;6.788;2023-04-19T09:30:49;101813.00;;;18.44;36.79
46955;BME280;32708;51.212;6.788;2023-04-19T09:33:34;101798.25;;;18.15;37.76
46955;BME280;32708;51.212;6.788;2023-04-19T09:36:04;101802.16;;;18.76;37.43
46955;BME280;32708;51.212;6.788;2023-04-19T09:38:45;101798.13;;;18.73;36.13
46955;BME280;32708;51.212;6.788;2023-04-19T09:41:11;101793.50;;;19.89;35.53
46955;BME280;32708;51.212;6.788;2023-04-19T09:43:37;101793.28;;;17.64;37.43
46955;BME280;32708;51.212;6.788;2023-04-19T09:46:04;101762.16;;;18.61;36.67
46955;BME280;32708;51.212;6.788;2023-04-19T09:48:30;101745.63;;;17.09;38.67
46955;BME280;32708;51.212;6.788;2023-04-19T09:51:00;101794.44;;;18.57;36.66
46955;BME280;32708;51.212;6.788;2023-04-19T09:53:28;101774.06;;;17.88;37.84
46955;BME280;32708;51.212;6.788;2023-04-19T09:55:55;101783.59;;;19.16;35.64
46955;BME280;32708;51.212;6.788;2023-04-19T09:58:21;101757.34;;;18.58;36.13
46955;BME280;32708;51.212;6.788;2023-04-19T10:00:48;101766.22;;;19.04;34.93
46955;BME280;32708;51.212;6.788;2023-04-19T10:03:18;101771.53;;;18.44;34.55
46955;BME280;32708;51.212;6.788;2023-04-19T10:05:45;101770.47;;;18.00;34.69
46955;BME280;32708;51.212;6.788;2023-04-19T10:08:12;101767.38;;;17.56;35.09
46955;BME280;32708;51.212;6.788;2023-04-19T10:10:40;101772.59;;;17.03;35.72
46955;BME280;32708;51.212;6.788;2023-04-19T10:13:10;101773.25;;;17.87;34.43
46955;BME280;32708;51.212;6.788;2023-04-19T10:15:37;101761.97;;;18.05;35.09
46955;BME280;32708;51.212;6.788;2023-04-19T10:18:05;101758.38;;;17.92;34.57
46955;BME280;32708;51.212;6.788;2023-04-19T10:20:57;101755.25;;;18.55;34.18
46955;BME280;32708;51.212;6.788;2023-04-19T10:23:24;101777.88;;;17.63;33.17
46955;BME280;32708;51.212;6.788;2023-04-19T10:25:56;101775.31;;;18.39;33.68
46955;BME280;32708;51.212;6.788;2023-04-19T10:28:23;101767.97;;;17.95;34.46
46955;BME280;32708;51.212;6.788;2023-04-19T10:31:03;101756.19;;;17.40;33.68
46955;BME280;32708;51.212;6.788;2023-04-19T10:33:35;101748.47;;;17.33;34.13
46955;BME280;32708;51.212;6.788;2023-04-19T10:36:03;101737.34;;;18.64;32.28
46955;BME280;32708;51.212;6.788;2023-04-19T10:38:50;101734.56;;;18.00;31.75
46955;BME280;32708;51.212;6.788;2023-04-19T10:41:18;101738.81;;;17.85;32.22
46955;BME280;32708;51.212;6.788;2023-04-19T10:48:58;101735.31;;;18.49;31.38
46955;BME280;32708;51.212;6.788;2023-04-19T10:51:34;101727.00;;;18.74;30.27
46955;BME280;32708;51.212;6.788;2023-04-19T10:54:12;101731.28;;;18.99;29.36
46955;BME280;32708;51.212;6.788;2023-04-19T10:57:04;101738.22;;;18.28;30.79
46955;BME280;32708;51.212;6.788;2023-04-19T10:59:38;101740.50;;;18.75;30.62
46955;BME280;32708;51.212;6.788;2023-04-19T11:07:17;101725.34;;;18.32;30.61
46955;BME280;32708;51.212;6.788;2023-04-19T11:09:48;101737.78;;;17.90;31.04
46955;BME280;32708;51.212;6.788;2023-04-19T11:12:18;101709.53;;;18.85;30.42
46955;BME280;32708;51.212;6.788;2023-04-19T11:14:50;101730.13;;;19.00;30.94
46955;BME280;32708;51.212;6.788;2023-04-19T11:17:30;101698.22;;;18.90;29.82
46955;BME280;32708;51.212;6.788;2023-04-19T11:20:03;101707.28;;;17.98;30.66
46955;BME280;32708;51.212;6.788;2023-04-19T11:25:11;101721.75;;;18.32;31.15
46955;BME280;32708;51.212;6.788;2023-04-19T11:27:40;101710.06;;;17.86;31.20
46955;BME280;32708;51.212;6.788;2023-04-19T11:30:20;101702.81;;;17.03;31.98
46955;BME280;32708;51.212;6.788;2023-04-19T11:32:53;101706.66;;;17.68;31.49
46955;BME280;32708;51.212;6.788;2023-04-19T11:35:25;101690.81;;;18.02;29.62
46955;BME280;32708;51.212;6.788;2023-04-19T11:37:54;101680.06;;;19.05;28.58
46955;BME280;32708;51.212;6.788;2023-04-19T11:40:23;101703.13;;;18.81;29.02
46955;BME280;32708;51.212;6.788;2023-04-19T11:42:59;101677.06;;;18.82;28.89
46955;BME280;32708;51.212;6.788;2023-04-19T11:45:35;101692.44;;;18.55;29.39
46955;BME280;32708;51.212;6.788;2023-04-19T11:48:05;101678.50;;;19.36;28.01
46955;BME280;32708;51.212;6.788;2023-04-19T11:53:13;101678.38;;;19.76;27.98
46955;BME280;32708;51.212;6.788;2023-04-19T11:55:44;101680.72;;;18.46;28.48
46955;BME280;32708;51.212;6.788;2023-04-19T12:00:49;101673.53;;;18.17;27.97
46955;BME280;32708;51.212;6.788;2023-04-19T12:03:20;101648.16;;;17.17;29.08
46955;BME280;32708;51.212;6.788;2023-04-19T12:05:59;101669.00;;;18.37;28.12
46955;BME280;32708;51.212;6.788;2023-04-19T12:08:36;101678.03;;;18.74;27.76
46955;BME280;32708;51.212;6.788;2023-04-19T12:11:04;101676.78;;;18.59;28.28
46955;BME280;32708;51.212;6.788;2023-04-19T12:13:35;101678.25;;;18.04;29.04
46955;BME280;32708;51.212;6.788;2023-04-19T12:16:10;101670.34;;;19.11;28.97
46955;BME280;32708;51.212;6.788;2023-04-19T12:18:51;101654.84;;;19.22;28.77
46955;BME280;32708;51.212;6.788;2023-04-19T12:21:30;101652.56;;;17.67;30.59
46955;BME280;32708;51.212;6.788;2023-04-19T12:24:00;101657.88;;;18.09;29.92
46955;BME280;32708;51.212;6.788;2023-04-19T12:26:28;101652.84;;;18.51;29.08
46955;BME280;32708;51.212;6.788;2023-04-19T12:28:57;101650.38;;;18.22;28.85
46955;BME280;32708;51.212;6.788;2023-04-19T12:31:24;101660.81;;;18.28;29.13
46955;BME280;32708;51.212;6.788;2023-04-19T12:33:51;101651.91;;;17.95;28.92
46955;BME280;32708;51.212;6.788;2023-04-19T12:36:19;101621.94;;;18.49;27.94
46955;BME280;32708;51.212;6.788;2023-04-19T12:38:46;101632.25;;;18.64;28.07
46955;BME280;32708;51.212;6.788;2023-04-19T12:41:12;101630.00;;;18.54;27.86
46955;BME280;32708;51.212;6.788;2023-04-19T12:43:38;101630.69;;;18.23;28.47
46955;BME280;32708;51.212;6.788;2023-04-19T12:46:07;101616.63;;;18.84;27.92
46955;BME280;32708;51.212;6.788;2023-04-19T12:48:33;101623.13;;;17.59;28.76
46955;BME280;32708;51.212;6.788;2023-04-19T12:50:59;101619.16;;;18.49;27.92
46955;BME280;32708;51.212;6.788;2023-04-19T12:53:26;101621.34;;;18.56;27.56
46955;BME280;32708;51.212;6.788;2023-04-19T12:55:54;101625.91;;;18.36;28.90
46955;BME280;32708;51.212;6.788;2023-04-19T12:58:21;101624.03;;;18.00;29.23
46955;BME280;32708;51.212;6.788;2023-04-19T13:00:48;101613.41;;;18.14;28.71
46955;BME280;32708;51.212;6.788;2023-04-19T13:03:17;101606.97;;;18.78;28.46
46955;BME280;32708;51.212;6.788;2023-04-19T13:05:43;101607.03;;;18.94;27.97
46955;BME280;32708;51.212;6.788;2023-04-19T13:08:09;101599.00;;;19.05;28.03
46955;BME280;32708;51.212;6.788;2023-04-19T13:10:36;101607.59;;;18.72;28.01
46955;BME280;32708;51.212;6.788;2023-04-19T13:13:02;101587.59;;;19.22;28.18
46955;BME280;32708;51.212;6.788;2023-04-19T13:15:28;101599.41;;;18.63;28.53